createdAt,value
2019-05-30T00:00:14.866Z,6.14
2019-05-30T00:01:04.214Z,10.63
2019-05-30T00:02:02.709Z,6.05
2019-05-30T00:03:04.347Z,9.84
2019-05-30T00:04:03.171Z,5.77
2019-05-30T00:05:02.776Z,9.41
2019-05-30T00:06:02.936Z,6.14
2019-05-30T00:07:02.841Z,9.09
2019-05-30T00:08:02.509Z,9.72
2019-05-30T00:09:03.265Z,6.16
2019-05-30T00:10:03.028Z,6.53
2019-05-30T00:11:04.658Z,9.01
2019-05-30T00:12:03.135Z,8.34
2019-05-30T00:13:02.919Z,7.44
2019-05-30T00:14:02.791Z,7.55
2019-05-30T00:15:04.900Z,6.95
2019-05-30T00:16:02.874Z,7.08
2019-05-30T00:17:03.141Z,6.35
2019-05-30T00:18:02.932Z,6.17
2019-05-30T00:19:02.888Z,7.63
2019-05-30T00:20:03.409Z,6.81
2019-05-30T00:21:02.899Z,6.41
2019-05-30T00:22:03.850Z,9.25
2019-05-30T00:23:02.862Z,6.34
2019-05-30T00:24:02.405Z,6.34
2019-05-30T00:25:04.296Z,8.16
2019-05-30T00:26:03.356Z,12.44
2019-05-30T00:27:04.518Z,12.44
2019-05-30T00:28:05.090Z,6.81
2019-05-30T00:29:02.685Z,10.39
2019-05-30T00:30:03.534Z,10.39
2019-05-30T00:31:02.951Z,7.28
2019-05-30T00:32:03.939Z,6.45
2019-05-30T00:33:03.516Z,6.74
2019-05-30T00:34:04.086Z,7.69
2019-05-30T00:35:03.754Z,7.94
2019-05-30T00:36:03.906Z,7.29
2019-05-30T00:37:03.930Z,8.78
2019-05-30T00:38:02.511Z,6.59
2019-05-30T00:39:03.888Z,6.64
2019-05-30T00:40:04.064Z,9.59
2019-05-30T00:41:04.171Z,8.76
2019-05-30T00:42:04.201Z,7.64
2019-05-30T00:43:04.097Z,7.62
2019-05-30T00:44:04.310Z,10.71
2019-05-30T00:45:17.354Z,6.36
2019-05-30T00:46:02.556Z,6.92
2019-05-30T00:47:04.424Z,7.69
2019-05-30T00:48:02.515Z,7.66
2019-05-30T00:49:04.500Z,10.56
2019-05-30T00:50:02.965Z,8.99
2019-05-30T00:51:02.993Z,6.54
2019-05-30T00:52:02.668Z,7.36
2019-05-30T00:53:02.978Z,9.9
2019-05-30T00:54:02.905Z,8.37
2019-05-30T00:55:04.662Z,10.16
2019-05-30T00:56:03.142Z,8.75
2019-05-30T00:57:02.848Z,8.26
2019-05-30T00:58:03.117Z,10.81
2019-05-30T00:59:03.187Z,9.78
2019-05-30T01:00:03.388Z,8.95
2019-05-30T01:01:03.058Z,7.29
2019-05-30T01:02:02.871Z,7.86
2019-05-30T01:03:04.770Z,9.75
2019-05-30T01:04:03.188Z,6.65
2019-05-30T01:05:03.444Z,7.55
2019-05-30T01:06:02.961Z,10.16
2019-05-30T01:07:03.505Z,8.91
2019-05-30T01:08:03.419Z,12.24
2019-05-30T01:09:03.338Z,8.69
2019-05-30T01:10:03.199Z,7.91
2019-05-30T01:11:03.438Z,7.86
2019-05-30T01:12:03.072Z,8.01
2019-05-30T01:13:03.078Z,9.32
2019-05-30T01:14:03.732Z,6.62
2019-05-30T01:15:03.338Z,8.39
2019-05-30T01:16:03.182Z,8.39
2019-05-30T01:17:03.264Z,7.02
2019-05-30T01:18:03.155Z,7.14
2019-05-30T01:19:03.287Z,7.14
2019-05-30T01:20:03.167Z,9.69
2019-05-30T01:21:03.234Z,7.99
2019-05-30T01:22:03.442Z,7.99
2019-05-30T01:23:03.260Z,6.74
2019-05-30T01:24:03.476Z,8.08
2019-05-30T01:25:04.256Z,7.97
2019-05-30T01:26:03.421Z,8.11
2019-05-30T01:27:03.465Z,6.94
2019-05-30T01:28:03.606Z,7.18
2019-05-30T01:29:03.427Z,7.48
2019-05-30T01:30:03.682Z,9.39
2019-05-30T01:31:07.848Z,8.39
2019-05-30T01:32:03.608Z,7.52
2019-05-30T01:33:03.811Z,7.56
2019-05-30T01:34:03.660Z,9.17
2019-05-30T01:35:03.708Z,9.29
2019-05-30T01:36:03.739Z,7.72
2019-05-30T01:37:03.751Z,8.74
2019-05-30T01:38:03.943Z,8.82
2019-05-30T01:39:03.749Z,8.16
2019-05-30T01:40:02.447Z,10.92
2019-05-30T01:41:03.971Z,7.08
2019-05-30T01:42:03.833Z,8.3
2019-05-30T01:43:04.080Z,8.8
2019-05-30T01:44:03.894Z,8.12
2019-05-30T01:45:04.214Z,12.02
2019-05-30T01:46:04.107Z,8.11
2019-05-30T01:47:02.762Z,7.78
2019-05-30T01:48:02.947Z,8.94
2019-05-30T01:49:02.918Z,9.72
2019-05-30T01:50:02.635Z,8.95
2019-05-30T01:51:04.477Z,8.67
2019-05-30T01:52:03.068Z,6.95
2019-05-30T01:53:02.685Z,8.45
2019-05-30T01:54:04.545Z,6.55
2019-05-30T01:55:02.895Z,11.85
2019-05-30T01:56:02.766Z,8.72
2019-05-30T01:57:03.073Z,8.16
2019-05-30T01:58:03.211Z,8.59
2019-05-30T01:59:02.689Z,7.49
2019-05-30T02:00:07.647Z,10.42
2019-05-30T02:01:16.685Z,7.65
2019-05-30T02:02:03.297Z,10.35
2019-05-30T02:03:03.026Z,10.35
2019-05-30T02:04:03.239Z,16.01
2019-05-30T02:05:03.162Z,9.64
2019-05-30T02:06:03.226Z,8.58
2019-05-30T02:07:03.391Z,8.58
2019-05-30T02:08:03.152Z,8.72
2019-05-30T02:09:03.200Z,8.38
2019-05-30T02:10:03.339Z,8.11
2019-05-30T02:11:03.346Z,8.11
2019-05-30T02:12:03.628Z,9.39
2019-05-30T02:13:03.344Z,8.45
2019-05-30T02:14:03.568Z,10.29
2019-05-30T02:15:03.613Z,9.09
2019-05-30T02:16:03.737Z,10.92
2019-05-30T02:17:03.644Z,7.54
2019-05-30T02:18:03.524Z,10.04
2019-05-30T02:19:03.695Z,10.59
2019-05-30T02:20:03.655Z,11.67
2019-05-30T02:21:03.737Z,8.29
2019-05-30T02:22:03.693Z,7.34
2019-05-30T02:23:03.964Z,12.09
2019-05-30T02:24:03.787Z,6.65
2019-05-30T02:25:03.641Z,7.4
2019-05-30T02:26:04.084Z,8.11
2019-05-30T02:27:04.096Z,9.68
2019-05-30T02:28:02.406Z,7.79
2019-05-30T02:29:04.176Z,6.84
2019-05-30T02:30:04.054Z,6.58
2019-05-30T02:31:04.750Z,9.49
2019-05-30T02:32:04.956Z,7.55
2019-05-30T02:33:03.002Z,6.86
2019-05-30T02:34:02.979Z,7.92
2019-05-30T02:35:05.107Z,8.34
2019-05-30T02:36:03.920Z,7.25
2019-05-30T02:37:05.465Z,8.09
2019-05-30T02:38:03.167Z,7.86
2019-05-30T02:39:03.010Z,7.49
2019-05-30T02:40:05.772Z,6.09
2019-05-30T02:41:03.300Z,7.8
2019-05-30T02:42:03.166Z,6.95
2019-05-30T02:43:04.032Z,6.17
2019-05-30T02:44:03.018Z,7.7
2019-05-30T02:45:04.046Z,9.11
2019-05-30T02:46:03.547Z,7.08
2019-05-30T02:47:03.990Z,6.79
2019-05-30T02:48:03.268Z,7.28
2019-05-30T02:49:04.861Z,6.66
2019-05-30T02:50:04.348Z,10.65
2019-05-30T02:51:03.336Z,7.84
2019-05-30T02:52:04.657Z,7.58
2019-05-30T02:53:03.646Z,10.23
2019-05-30T02:54:04.057Z,11.17
2019-05-30T02:55:03.904Z,7.79
2019-05-30T02:56:03.642Z,7.79
2019-05-30T02:57:03.520Z,7.49
2019-05-30T02:58:03.747Z,7.49
2019-05-30T02:59:03.847Z,7.45
2019-05-30T03:00:04.553Z,8.36
2019-05-30T03:01:03.891Z,8.36
2019-05-30T03:02:06.765Z,8.44
2019-05-30T03:03:03.945Z,10.15
2019-05-30T03:04:04.007Z,11.15
2019-05-30T03:05:04.000Z,7.67
2019-05-30T03:06:03.844Z,11.87
2019-05-30T03:07:03.981Z,7.04
2019-05-30T03:08:04.835Z,10.69
2019-05-30T03:09:03.919Z,7.23
2019-05-30T03:10:05.025Z,18.19
2019-05-30T03:11:04.999Z,7.02
2019-05-30T03:12:04.065Z,8.22
2019-05-30T03:13:04.062Z,10.04
2019-05-30T03:14:04.245Z,7.67
2019-05-30T03:15:05.131Z,8.16
2019-05-30T03:16:04.547Z,8.11
2019-05-30T03:17:04.700Z,13.82
2019-05-30T03:18:04.447Z,9.24
2019-05-30T03:19:03.749Z,7.51
2019-05-30T03:20:10.727Z,6.94
2019-05-30T03:21:03.235Z,8.31
2019-05-30T03:22:03.472Z,8.72
2019-05-30T03:23:04.914Z,8.12
2019-05-30T03:24:04.929Z,10.36
2019-05-30T03:25:03.432Z,7.96
2019-05-30T03:26:04.737Z,11.94
2019-05-30T03:27:04.790Z,10.75
2019-05-30T03:28:05.076Z,8.17
2019-05-30T03:29:05.010Z,8.64
2019-05-30T03:30:04.991Z,7.79
2019-05-30T03:31:05.587Z,6.61
2019-05-30T03:32:38.458Z,11.4
2019-05-30T03:33:09.678Z,7.74
2019-05-30T03:34:05.603Z,8.72
2019-05-30T03:35:05.803Z,11.01
2019-05-30T03:36:06.127Z,8.6
2019-05-30T03:37:05.834Z,6.35
2019-05-30T03:38:03.320Z,8.81
2019-05-30T03:39:03.343Z,9.87
2019-05-30T03:40:02.689Z,10.35
2019-05-30T03:41:04.570Z,7.68
2019-05-30T03:42:04.409Z,10.46
2019-05-30T03:43:03.946Z,8.5
2019-05-30T03:44:03.926Z,9.04
2019-05-30T03:45:04.144Z,7.74
2019-05-30T03:46:03.996Z,7.74
2019-05-30T03:47:03.818Z,13.05
2019-05-30T03:48:04.232Z,7.74
2019-05-30T03:49:04.096Z,7.74
2019-05-30T03:50:05.102Z,8.52
2019-05-30T03:51:04.152Z,8.52
2019-05-30T03:52:04.673Z,10.29
2019-05-30T03:53:04.528Z,7.19
2019-05-30T03:54:04.938Z,8.85
2019-05-30T03:55:04.824Z,7.4
2019-05-30T03:56:04.497Z,7.35
2019-05-30T03:57:04.620Z,7.68
2019-05-30T03:58:02.519Z,7.82
2019-05-30T03:59:02.928Z,11.11
2019-05-30T04:00:02.859Z,9.63
2019-05-30T04:01:02.520Z,9.25
2019-05-30T04:02:02.795Z,9.15
2019-05-30T04:03:02.779Z,8.18
2019-05-30T04:04:02.417Z,7.69
2019-05-30T04:05:02.957Z,8.59
2019-05-30T04:06:02.513Z,9.11
2019-05-30T04:07:03.012Z,8.53
2019-05-30T04:08:02.901Z,9.84
2019-05-30T04:09:02.583Z,10.26
2019-05-30T04:10:03.490Z,7.22
2019-05-30T04:11:02.622Z,10.74
2019-05-30T04:12:02.938Z,8.39
2019-05-30T04:13:02.775Z,11.75
2019-05-30T04:14:03.195Z,10.36
2019-05-30T04:15:03.051Z,9.12
2019-05-30T04:16:02.577Z,7.58
2019-05-30T04:17:03.308Z,11.1
2019-05-30T04:18:03.066Z,7.37
2019-05-30T04:19:02.414Z,8.71
2019-05-30T04:20:03.135Z,7.25
2019-05-30T04:21:02.887Z,8.32
2019-05-30T04:22:02.664Z,8.11
2019-05-30T04:23:03.187Z,7.92
2019-05-30T04:24:02.967Z,9.58
2019-05-30T04:25:02.471Z,9.78
2019-05-30T04:26:03.159Z,11.81
2019-05-30T04:27:02.837Z,12.06
2019-05-30T04:28:03.263Z,8.62
2019-05-30T04:29:03.091Z,8.91
2019-05-30T04:30:02.755Z,10.78
2019-05-30T04:31:02.432Z,10.66
2019-05-30T04:32:03.117Z,9.68
2019-05-30T04:33:16.612Z,13.13
2019-05-30T04:34:02.331Z,13.72
2019-05-30T04:35:03.129Z,8.11
2019-05-30T04:36:02.712Z,8.05
2019-05-30T04:37:03.171Z,10.02
2019-05-30T04:38:03.101Z,9.54
2019-05-30T04:39:02.889Z,9.54
2019-05-30T04:40:02.513Z,9.84
2019-05-30T04:41:02.998Z,9.84
2019-05-30T04:42:02.609Z,9.13
2019-05-30T04:43:02.989Z,10.04
2019-05-30T04:44:02.768Z,10.04
2019-05-30T04:45:02.659Z,12.04
2019-05-30T04:46:03.245Z,9.13
2019-05-30T04:47:02.783Z,10.2
2019-05-30T04:48:02.434Z,10.58
2019-05-30T04:49:02.888Z,8.15
2019-05-30T04:50:02.982Z,12.28
2019-05-30T04:51:03.201Z,8.19
2019-05-30T04:52:03.255Z,9.24
2019-05-30T04:53:02.848Z,11.91
2019-05-30T04:54:02.330Z,9.04
2019-05-30T04:55:03.044Z,11.38
2019-05-30T04:56:02.549Z,8.45
2019-05-30T04:57:03.119Z,9.71
2019-05-30T04:58:03.058Z,8.81
2019-05-30T04:59:02.627Z,8.74
2019-05-30T05:00:03.358Z,10.62
2019-05-30T05:01:03.048Z,8.1
2019-05-30T05:02:02.530Z,10.58
2019-05-30T05:03:03.376Z,8.88
2019-05-30T05:04:03.135Z,11.35
2019-05-30T05:05:02.608Z,14.01
2019-05-30T05:06:03.307Z,8.89
2019-05-30T05:07:02.478Z,9.04
2019-05-30T05:08:02.400Z,13.33
2019-05-30T05:09:03.126Z,11.4
2019-05-30T05:10:02.918Z,16.89
2019-05-30T05:11:03.152Z,12.69
2019-05-30T05:12:02.905Z,8.52
2019-05-30T05:13:02.510Z,8.86
2019-05-30T05:14:02.557Z,9.33
2019-05-30T05:15:03.352Z,11.28
2019-05-30T05:16:02.563Z,8.83
2019-05-30T05:17:03.160Z,10.19
2019-05-30T05:18:03.054Z,8.35
2019-05-30T05:19:02.373Z,9.32
2019-05-30T05:20:03.424Z,8.69
2019-05-30T05:21:02.787Z,9.79
2019-05-30T05:22:02.501Z,8.43
2019-05-30T05:23:03.267Z,13.69
2019-05-30T05:24:03.233Z,8.39
2019-05-30T05:25:02.610Z,9.2
2019-05-30T05:26:03.033Z,9.2
2019-05-30T05:27:02.713Z,11.28
2019-05-30T05:28:03.362Z,9.51
2019-05-30T05:29:02.978Z,9.51
2019-05-30T05:30:02.531Z,10.09
2019-05-30T05:31:03.373Z,14
2019-05-30T05:32:02.977Z,14
2019-05-30T05:33:02.572Z,10.08
2019-05-30T05:34:03.273Z,7.63
2019-05-30T05:35:02.681Z,7.85
2019-05-30T05:36:02.520Z,7.85
2019-05-30T05:37:03.002Z,9.72
2019-05-30T05:38:02.524Z,8.58
2019-05-30T05:39:03.431Z,9.05
2019-05-30T05:40:02.957Z,10.11
2019-05-30T05:41:02.530Z,9.6
2019-05-30T05:42:03.397Z,11.95
2019-05-30T05:43:02.852Z,9.85
2019-05-30T05:44:02.291Z,13.35
2019-05-30T05:45:02.988Z,9.19
2019-05-30T05:46:02.800Z,11.69
2019-05-30T05:47:02.236Z,8.56
2019-05-30T05:48:03.170Z,8.24
2019-05-30T05:49:02.507Z,8.83
2019-05-30T05:50:03.329Z,8.18
2019-05-30T05:51:02.789Z,10.35
2019-05-30T05:52:03.161Z,13.46
2019-05-30T05:53:03.215Z,12.74
2019-05-30T05:54:02.557Z,10.32
2019-05-30T05:55:03.278Z,9.59
2019-05-30T05:56:03.004Z,10.88
2019-05-30T05:57:02.345Z,8.75
2019-05-30T05:58:04.296Z,11.71
2019-05-30T05:59:02.928Z,8.96
2019-05-30T06:00:02.675Z,9.99
2019-05-30T06:01:03.295Z,8.02
2019-05-30T06:02:02.919Z,9.82
2019-05-30T06:03:02.161Z,9.06
2019-05-30T06:04:12.400Z,9.47
2019-05-30T06:05:02.974Z,8.75
2019-05-30T06:06:03.335Z,10.3
2019-05-30T06:07:03.242Z,15.12
2019-05-30T06:08:02.716Z,7.61
2019-05-30T06:09:03.140Z,7.91
2019-05-30T06:10:02.901Z,9.05
2019-05-30T06:11:02.608Z,9.29
2019-05-30T06:12:03.251Z,8.77
2019-05-30T06:13:03.114Z,7.71
2019-05-30T06:14:02.453Z,10.1
2019-05-30T06:15:03.337Z,8.43
2019-05-30T06:16:02.746Z,8.68
2019-05-30T06:17:03.293Z,8.75
2019-05-30T06:18:02.921Z,8.09
2019-05-30T06:19:02.877Z,8.09
2019-05-30T06:20:03.467Z,9.48
2019-05-30T06:21:02.892Z,9.48
2019-05-30T06:22:02.458Z,7.34
2019-05-30T06:23:03.134Z,7.84
2019-05-30T06:24:02.773Z,7.84
2019-05-30T06:25:03.475Z,8.82
2019-05-30T06:26:03.107Z,10.49
2019-05-30T06:27:02.462Z,12.16
2019-05-30T06:28:03.266Z,7.96
2019-05-30T06:29:02.774Z,7.87
2019-05-30T06:30:02.554Z,8.45
2019-05-30T06:31:03.264Z,7.05
2019-05-30T06:32:03.005Z,8.05
2019-05-30T06:33:03.460Z,9.86
2019-05-30T06:34:03.001Z,7.22
2019-05-30T06:35:02.651Z,7.34
2019-05-30T06:36:03.216Z,8.3
2019-05-30T06:37:02.930Z,6.45
2019-05-30T06:38:02.553Z,7.66
2019-05-30T06:39:03.090Z,9.71
2019-05-30T06:40:02.655Z,6.9
2019-05-30T06:41:03.161Z,8.31
2019-05-30T06:42:02.662Z,6.26
2019-05-30T06:43:02.686Z,7.39
2019-05-30T06:44:05.648Z,7.48
2019-05-30T06:45:02.989Z,7.12
2019-05-30T06:46:02.520Z,7.7
2019-05-30T06:47:03.183Z,7.64
2019-05-30T06:48:02.780Z,6.67
2019-05-30T06:49:03.092Z,6.92
2019-05-30T06:50:03.051Z,9.14
2019-05-30T06:51:02.648Z,10.96
2019-05-30T06:52:03.170Z,6.08
2019-05-30T06:53:02.681Z,6.62
2019-05-30T06:54:03.322Z,6.84
2019-05-30T06:55:02.782Z,6.04
2019-05-30T06:56:03.078Z,6.4
2019-05-30T06:57:03.594Z,8.11
2019-05-30T06:58:02.966Z,6.71
2019-05-30T06:59:02.697Z,6.73
2019-05-30T07:00:03.538Z,7.06
2019-05-30T07:01:02.935Z,8.28
2019-05-30T07:02:02.707Z,12.51
2019-05-30T07:03:03.469Z,6.46
2019-05-30T07:04:03.186Z,6.46
2019-05-30T07:05:03.034Z,9.36
2019-05-30T07:06:03.470Z,6.82
2019-05-30T07:07:05.669Z,6.82
2019-05-30T07:08:03.325Z,6.95
2019-05-30T07:09:02.946Z,8.17
2019-05-30T07:10:02.851Z,8.17
2019-05-30T07:11:03.211Z,5.74
2019-05-30T07:12:02.990Z,5.74
2019-05-30T07:13:02.667Z,7.34
2019-05-30T07:14:02.323Z,12.44
2019-05-30T07:15:03.174Z,12.29
2019-05-30T07:16:02.601Z,7.48
2019-05-30T07:17:03.198Z,7.19
2019-05-30T07:18:02.917Z,8.69
2019-05-30T07:19:03.123Z,5.78
2019-05-30T07:20:03.273Z,9.25
2019-05-30T07:21:02.788Z,6.69
2019-05-30T07:22:03.055Z,11.48
2019-05-30T07:23:03.027Z,6.79
2019-05-30T07:24:02.919Z,6.09
2019-05-30T07:25:03.193Z,6.76
2019-05-30T07:26:03.606Z,6.69
2019-05-30T07:27:02.563Z,6.66
2019-05-30T07:28:03.294Z,6.41
2019-05-30T07:29:02.391Z,9.28
2019-05-30T07:30:03.220Z,8.16
2019-05-30T07:31:02.773Z,5.32
2019-05-30T07:32:02.640Z,5.83
2019-05-30T07:33:03.348Z,5.31
2019-05-30T07:34:02.889Z,6.89
2019-05-30T07:35:06.329Z,4.4
2019-05-30T07:36:03.121Z,4.42
2019-05-30T07:37:02.593Z,6.78
2019-05-30T07:38:02.599Z,6.11
2019-05-30T07:39:03.110Z,5.43
2019-05-30T07:40:02.880Z,4.69
2019-05-30T07:41:03.526Z,6.45
2019-05-30T07:42:06.417Z,9.81
2019-05-30T07:43:02.571Z,5.56
2019-05-30T07:44:02.250Z,5.25
2019-05-30T07:45:02.944Z,5.82
2019-05-30T07:46:02.376Z,5.55
2019-05-30T07:47:03.360Z,5.57
2019-05-30T07:48:02.790Z,5.35
2019-05-30T07:49:03.345Z,5.65
2019-05-30T07:50:03.116Z,5.48
2019-05-30T07:51:02.944Z,7.18
2019-05-30T07:52:03.094Z,5.81
2019-05-30T07:53:02.588Z,5.09
2019-05-30T07:54:02.965Z,9.71
2019-05-30T07:55:03.163Z,7.18
2019-05-30T07:56:02.498Z,6.05
2019-05-30T07:57:02.763Z,6.9
2019-05-30T07:58:02.968Z,6.9
2019-05-30T07:59:02.597Z,6.96
2019-05-30T08:00:03.376Z,6.96
2019-05-30T08:01:02.584Z,6.15
2019-05-30T08:02:03.323Z,6.16
2019-05-30T08:03:03.098Z,6.02
2019-05-30T08:04:02.755Z,6.38
2019-05-30T08:05:02.896Z,5.24
2019-05-30T08:06:02.761Z,4.94
2019-05-30T08:07:02.617Z,5.15
2019-05-30T08:08:02.917Z,8.65
2019-05-30T08:09:02.669Z,5.27
2019-05-30T08:10:03.524Z,5.26
2019-05-30T08:11:09.201Z,5.61
2019-05-30T08:12:02.527Z,6.34
2019-05-30T08:13:03.298Z,5.45
2019-05-30T08:14:02.801Z,5.42
2019-05-30T08:15:03.521Z,5.11
2019-05-30T08:16:02.989Z,6.01
2019-05-30T08:17:03.047Z,6.16
2019-05-30T08:18:02.554Z,4.99
2019-05-30T08:19:02.930Z,4.16
2019-05-30T08:20:02.627Z,5.35
2019-05-30T08:21:03.181Z,6.28
2019-05-30T08:22:02.726Z,7.99
2019-05-30T08:23:02.713Z,7.88
2019-05-30T08:24:03.465Z,6.6
2019-05-30T08:25:02.962Z,4.79
2019-05-30T08:26:02.727Z,6.66
2019-05-30T08:27:03.121Z,3.96
2019-05-30T08:28:02.806Z,3.91
2019-05-30T08:29:02.844Z,4.43
2019-05-30T08:30:03.508Z,3.88
2019-05-30T08:31:02.814Z,3.12
2019-05-30T08:32:03.140Z,4.75
2019-05-30T08:33:03.101Z,7.01
2019-05-30T08:34:03.077Z,6.22
2019-05-30T08:35:02.752Z,5.44
2019-05-30T08:36:05.464Z,3.76
2019-05-30T08:37:02.477Z,3.36
2019-05-30T08:38:03.179Z,4.28
2019-05-30T08:39:02.612Z,3.65
2019-05-30T08:40:03.433Z,4.09
2019-05-30T08:41:03.203Z,4.35
2019-05-30T08:42:02.780Z,4.35
2019-05-30T08:43:03.446Z,6.14
2019-05-30T08:44:03.016Z,4.3
2019-05-30T08:45:02.727Z,3.46
2019-05-30T08:46:02.531Z,3.46
2019-05-30T08:47:03.048Z,5.75
2019-05-30T08:48:02.722Z,4.02
2019-05-30T08:49:03.240Z,4.02
2019-05-30T08:50:02.801Z,5.15
2019-05-30T08:51:03.181Z,6.24
2019-05-30T08:52:02.679Z,6.24
2019-05-30T08:53:02.752Z,5.85
2019-05-30T08:54:03.233Z,5.23
2019-05-30T08:55:02.993Z,6.22
2019-05-30T08:56:02.491Z,5.22
2019-05-30T08:57:03.265Z,4.27
2019-05-30T08:58:02.897Z,3.65
2019-05-30T08:59:02.729Z,4.51
2019-05-30T09:00:03.146Z,5.05
2019-05-30T09:01:02.764Z,5.15
2019-05-30T09:02:03.216Z,5.84
2019-05-30T09:03:03.109Z,3.68
2019-05-30T09:04:03.401Z,5.64
2019-05-30T09:05:06.640Z,3.62
2019-05-30T09:06:04.286Z,4.66
2019-05-30T09:07:03.370Z,4.26
2019-05-30T09:08:03.113Z,6.16
2019-05-30T09:09:02.502Z,6.19
2019-05-30T09:10:03.192Z,5.7
2019-05-30T09:11:02.616Z,5.26
2019-05-30T09:12:02.621Z,5.32
2019-05-30T09:13:03.197Z,5.69
2019-05-30T09:14:03.013Z,4.27
2019-05-30T09:15:03.400Z,3.91
2019-05-30T09:16:02.931Z,3.61
2019-05-30T09:17:03.184Z,5.35
2019-05-30T09:18:03.342Z,5.05
2019-05-30T09:19:03.176Z,5.56
2019-05-30T09:20:02.697Z,4.12
2019-05-30T09:21:03.311Z,3.49
2019-05-30T09:22:02.867Z,4.09
2019-05-30T09:23:02.531Z,4.35
2019-05-30T09:24:02.404Z,4.19
2019-05-30T09:25:03.243Z,3.11
2019-05-30T09:26:02.694Z,6.48
2019-05-30T09:27:03.133Z,6.18
2019-05-30T09:28:02.784Z,5.04
2019-05-30T09:29:03.781Z,3
2019-05-30T09:30:03.031Z,4.31
2019-05-30T09:31:02.965Z,4.29
2019-05-30T09:32:02.655Z,3.41
2019-05-30T09:33:02.681Z,3.41
2019-05-30T09:34:02.715Z,3.18
2019-05-30T09:35:02.480Z,7.81
2019-05-30T09:36:12.451Z,7.81
2019-05-30T09:37:02.679Z,3.25
2019-05-30T09:38:02.459Z,5.12
2019-05-30T09:39:02.805Z,3.98
2019-05-30T09:40:02.697Z,4.12
2019-05-30T09:41:03.139Z,3.16
2019-05-30T09:42:02.679Z,3.26
2019-05-30T09:43:02.723Z,6.8
2019-05-30T09:44:03.255Z,3.86
2019-05-30T09:45:02.862Z,2.81
2019-05-30T09:46:03.378Z,5.98
2019-05-30T09:47:02.926Z,5.6
2019-05-30T09:48:02.900Z,4.9
2019-05-30T09:49:02.436Z,3.67
2019-05-30T09:50:03.974Z,6.14
2019-05-30T09:51:02.348Z,3.54
2019-05-30T09:52:03.340Z,2.69
2019-05-30T09:53:02.793Z,4.61
2019-05-30T09:54:03.151Z,3.49
2019-05-30T09:55:03.297Z,2.71
2019-05-30T09:56:02.783Z,3.45
2019-05-30T09:57:03.432Z,4.69
2019-05-30T09:58:03.004Z,5.71
2019-05-30T09:59:02.627Z,2.81
2019-05-30T10:00:03.473Z,3.58
2019-05-30T10:01:02.847Z,4.56
2019-05-30T10:02:02.510Z,6.64
2019-05-30T10:03:03.074Z,5.92
2019-05-30T10:04:02.602Z,5.62
2019-05-30T10:05:02.456Z,8.03
2019-05-30T10:06:02.900Z,3.5
2019-05-30T10:07:02.889Z,6.05
2019-05-30T10:08:02.528Z,8.72
2019-05-30T10:09:03.039Z,4.55
2019-05-30T10:10:03.459Z,4.53
2019-05-30T10:11:03.026Z,4.53
2019-05-30T10:12:02.828Z,4.9
2019-05-30T10:13:03.275Z,2.86
2019-05-30T10:14:03.122Z,2.86
2019-05-30T10:15:02.830Z,6.57
2019-05-30T10:16:03.290Z,3.28
2019-05-30T10:17:03.006Z,2.68
2019-05-30T10:18:02.714Z,3.29
2019-05-30T10:19:02.622Z,3.04
2019-05-30T10:20:03.139Z,3.57
2019-05-30T10:21:02.842Z,4.14
2019-05-30T10:22:03.352Z,2.17
2019-05-30T10:23:03.731Z,4.31
2019-05-30T10:24:02.657Z,4
2019-05-30T10:25:02.673Z,4.6
2019-05-30T10:26:03.161Z,2.36
2019-05-30T10:27:02.775Z,2.82
2019-05-30T10:28:03.285Z,6.96
2019-05-30T10:29:03.081Z,3.26
2019-05-30T10:30:03.458Z,6.14
2019-05-30T10:31:02.936Z,3.78
2019-05-30T10:32:02.773Z,6.65
2019-05-30T10:33:03.449Z,11.27
2019-05-30T10:34:03.244Z,3.24
2019-05-30T10:35:02.789Z,4.49
2019-05-30T10:36:02.249Z,6.46
2019-05-30T10:37:02.932Z,3.52
2019-05-30T10:38:03.328Z,3.46
2019-05-30T10:39:02.712Z,2.72
2019-05-30T10:40:03.371Z,4.99
2019-05-30T10:41:03.126Z,3.14
2019-05-30T10:42:03.141Z,5.14
2019-05-30T10:43:02.820Z,5.14
2019-05-30T10:44:03.472Z,3.82
2019-05-30T10:45:03.341Z,7.38
2019-05-30T10:46:02.859Z,7.38
2019-05-30T10:47:02.566Z,3.7
2019-05-30T10:48:02.947Z,3.7
2019-05-30T10:49:02.465Z,6.2
2019-05-30T10:50:02.437Z,3.96
2019-05-30T10:51:02.992Z,2.85
2019-05-30T10:52:02.638Z,4.32
2019-05-30T10:53:03.275Z,2.55
2019-05-30T10:54:03.092Z,3.79
2019-05-30T10:55:02.668Z,3.41
2019-05-30T10:56:03.232Z,3.45
2019-05-30T10:57:03.128Z,3.11
2019-05-30T10:58:02.625Z,3.91
2019-05-30T10:59:03.099Z,3.33
2019-05-30T11:00:03.118Z,2.8
2019-05-30T11:01:03.178Z,6.94
2019-05-30T11:02:02.758Z,4.03
2019-05-30T11:03:02.773Z,5.23
2019-05-30T11:04:03.497Z,2.49
2019-05-30T11:05:02.915Z,2.93
2019-05-30T11:06:02.311Z,2.56
2019-05-30T11:07:10.901Z,3.99
2019-05-30T11:08:05.959Z,3.27
2019-05-30T11:09:03.026Z,3.17
2019-05-30T11:10:03.574Z,4.31
2019-05-30T11:11:02.790Z,2.79
2019-05-30T11:12:02.851Z,2.34
2019-05-30T11:13:05.770Z,3.02
2019-05-30T11:14:02.729Z,2.99
2019-05-30T11:15:03.001Z,2.92
2019-05-30T11:16:03.049Z,5.79
2019-05-30T11:17:02.897Z,3.98
2019-05-30T11:18:02.493Z,4.72
2019-05-30T11:19:07.156Z,4.28
2019-05-30T11:20:02.942Z,4.11
2019-05-30T11:21:02.450Z,4.11
2019-05-30T11:22:03.135Z,3.82
2019-05-30T11:23:02.973Z,3.82
2019-05-30T11:24:02.572Z,3.58
2019-05-30T11:25:03.012Z,2.44
2019-05-30T11:26:02.462Z,3.41
2019-05-30T11:27:03.465Z,2.24
2019-05-30T11:28:03.143Z,2.36
2019-05-30T11:29:02.610Z,3.87
2019-05-30T11:30:03.141Z,4.52
2019-05-30T11:31:04.466Z,2.62
2019-05-30T11:32:03.348Z,2.43
2019-05-30T11:33:03.178Z,3.89
2019-05-30T11:34:02.753Z,2.64
2019-05-30T11:35:02.434Z,2.98
2019-05-30T11:36:03.126Z,1.85
2019-05-30T11:37:17.908Z,2.54
2019-05-30T11:38:03.173Z,2.55
2019-05-30T11:39:02.621Z,2.51
2019-05-30T11:40:03.183Z,3.44
2019-05-30T11:41:03.227Z,1.84
2019-05-30T11:42:02.757Z,5.84
2019-05-30T11:43:02.699Z,1.86
2019-05-30T11:44:04.085Z,1.65
2019-05-30T11:45:02.917Z,1.81
2019-05-30T11:46:02.530Z,2.67
2019-05-30T11:47:02.925Z,3.08
2019-05-30T11:48:02.620Z,3.9
2019-05-30T11:49:03.207Z,1.75
2019-05-30T11:50:03.018Z,7.14
2019-05-30T11:51:02.435Z,2.92
2019-05-30T11:52:03.318Z,2.88
2019-05-30T11:53:02.735Z,5.09
2019-05-30T11:54:03.378Z,1.76
2019-05-30T11:55:03.317Z,2.48
2019-05-30T11:56:02.583Z,3.56
2019-05-30T11:57:03.464Z,1.56
2019-05-30T11:58:03.143Z,1.56
2019-05-30T11:59:02.751Z,4.14
2019-05-30T12:00:03.495Z,2.04
2019-05-30T12:01:03.063Z,2.04
2019-05-30T12:02:02.669Z,1.74
2019-05-30T12:03:03.521Z,3.02
2019-05-30T12:04:02.935Z,2.31
2019-05-30T12:05:02.510Z,1.87
2019-05-30T12:06:02.501Z,2.68
2019-05-30T12:07:02.976Z,2.35
2019-05-30T12:08:03.491Z,1.59
2019-05-30T12:09:03.208Z,3.32
2019-05-30T12:10:02.714Z,1.38
2019-05-30T12:11:02.559Z,2.71
2019-05-30T12:12:03.185Z,2.03
2019-05-30T12:13:02.700Z,2.28
2019-05-30T12:14:03.014Z,1.21
2019-05-30T12:15:02.805Z,1.62
2019-05-30T12:16:02.670Z,1.24
2019-05-30T12:17:03.391Z,5.52
2019-05-30T12:18:03.557Z,2.02
2019-05-30T12:19:02.517Z,1.36
2019-05-30T12:20:03.044Z,1.49
2019-05-30T12:21:02.931Z,0.96
2019-05-30T12:22:02.491Z,2.07
2019-05-30T12:23:02.498Z,2.4
2019-05-30T12:24:02.800Z,3.62
2019-05-30T12:25:02.811Z,5.49
2019-05-30T12:26:02.983Z,2.17
2019-05-30T12:27:02.493Z,2.21
2019-05-30T12:28:04.102Z,1.94
2019-05-30T12:29:02.938Z,2.1
2019-05-30T12:30:02.694Z,2.6
2019-05-30T12:31:05.984Z,2.72
2019-05-30T12:32:03.437Z,1.76
2019-05-30T12:33:03.484Z,2.71
2019-05-30T12:34:02.877Z,1.56
2019-05-30T12:35:03.375Z,4.7
2019-05-30T12:36:03.408Z,3.15
2019-05-30T12:37:02.776Z,2.01
2019-05-30T12:38:06.396Z,2.01
2019-05-30T12:39:02.930Z,3.28
2019-05-30T12:40:03.180Z,2.36
2019-05-30T12:41:03.092Z,2.41
2019-05-30T12:42:03.413Z,3.05
2019-05-30T12:43:04.564Z,2.95
2019-05-30T12:44:03.427Z,3.09
2019-05-30T12:45:06.719Z,2.27
2019-05-30T12:46:03.258Z,4.25
2019-05-30T12:47:03.523Z,1.16
2019-05-30T12:48:04.134Z,1.27
2019-05-30T12:49:03.645Z,1.45
2019-05-30T12:50:03.528Z,3.11
2019-05-30T12:51:03.504Z,1.61
2019-05-30T12:52:03.492Z,2.49
2019-05-30T12:53:03.063Z,1.82
2019-05-30T12:54:02.907Z,6.58
2019-05-30T12:55:03.548Z,2.66
2019-05-30T12:56:03.145Z,1.69
2019-05-30T12:57:02.793Z,2.05
2019-05-30T12:58:03.410Z,2.91
2019-05-30T12:59:03.123Z,1.32
2019-05-30T13:00:07.333Z,2.36
2019-05-30T13:01:03.433Z,1.25
2019-05-30T13:02:03.157Z,3.82
2019-05-30T13:03:03.081Z,1.17
2019-05-30T13:04:03.377Z,1.88
2019-05-30T13:05:03.067Z,1.84
2019-05-30T13:06:03.379Z,1.68
2019-05-30T13:07:03.385Z,2.08
2019-05-30T13:08:17.258Z,1.58
2019-05-30T13:09:03.529Z,2.88
2019-05-30T13:10:03.416Z,2.19
2019-05-30T13:11:03.662Z,1.51
2019-05-30T13:12:03.042Z,4.99
2019-05-30T13:13:03.911Z,2.35
2019-05-30T13:14:02.775Z,3.97
2019-05-30T13:15:03.809Z,1.99
2019-05-30T13:16:06.655Z,1.6
2019-05-30T13:17:03.906Z,2.24